sensor_id;sensor_type;location;lat;lon;timestamp;pressure;altitude;pressure_sealevel;temperature;humidity
69060;BME280;56135;37.534;-122.308;2022-11-20T00:00:03;101958.25;;;13.74;48.85
69060;BME280;56135;37.534;-122.308;2022-11-20T00:02:29;101954.81;;;13.59;49.72
69060;BME280;56135;37.534;-122.308;2022-11-20T00:04:54;101954.84;;;13.53;47.46
69060;BME280;56135;37.534;-122.308;2022-11-20T00:07:20;101956.72;;;13.39;51.21
69060;BME280;56135;37.534;-122.308;2022-11-20T00:09:46;101958.50;;;13.30;51.13
69060;BME280;56135;37.534;-122.308;2022-11-20T00:12:11;101956.75;;;13.20;51.70
69060;BME280;56135;37.534;-122.308;2022-11-20T00:14:37;101949.69;;;13.13;50.52
69060;BME280;56135;37.534;-122.308;2022-11-20T00:17:03;101956.84;;;13.01;52.98
69060;BME280;56135;37.534;-122.308;2022-11-20T00:19:29;101960.41;;;12.88;53.49
69060;BME280;56135;37.534;-122.308;2022-11-20T00:21:54;101958.66;;;12.72;55.00
69060;BME280;56135;37.534;-122.308;2022-11-20T00:24:21;101961.34;;;12.53;55.45
69060;BME280;56135;37.534;-122.308;2022-11-20T00:26:47;101956.94;;;12.41;57.27
69060;BME280;56135;37.534;-122.308;2022-11-20T00:29:12;101962.28;;;12.24;61.54
69060;BME280;56135;37.534;-122.308;2022-11-20T00:31:38;101960.50;;;12.14;61.67
69060;BME280;56135;37.534;-122.308;2022-11-20T00:34:04;101965.78;;;12.01;62.32
69060;BME280;56135;37.534;-122.308;2022-11-20T00:36:31;101957.81;;;11.86;66.62
69060;BME280;56135;37.534;-122.308;2022-11-20T00:38:57;101970.16;;;11.68;67.42
69060;BME280;56135;37.534;-122.308;2022-11-20T00:41:24;101970.09;;;11.58;69.68
69060;BME280;56135;37.534;-122.308;2022-11-20T00:43:53;101972.72;;;11.47;70.04
69060;BME280;56135;37.534;-122.308;2022-11-20T00:46:21;101973.56;;;11.32;71.71
69060;BME280;56135;37.534;-122.308;2022-11-20T00:48:47;101972.59;;;11.19;72.42
69060;BME280;56135;37.534;-122.308;2022-11-20T00:51:13;101974.34;;;11.08;72.41
69060;BME280;56135;37.534;-122.308;2022-11-20T00:53:39;101979.53;;;10.92;75.00
69060;BME280;56135;37.534;-122.308;2022-11-20T00:56:06;101983.88;;;10.79;74.28
69060;BME280;56135;37.534;-122.308;2022-11-20T00:58:33;101985.56;;;10.68;77.57
69060;BME280;56135;37.534;-122.308;2022-11-20T01:01:03;101991.66;;;10.55;79.32
69060;BME280;56135;37.534;-122.308;2022-11-20T01:03:33;101987.16;;;10.41;82.00
69060;BME280;56135;37.534;-122.308;2022-11-20T01:06:00;101985.19;;;10.25;83.69
69060;BME280;56135;37.534;-122.308;2022-11-20T01:08:29;101993.91;;;10.13;84.21
69060;BME280;56135;37.534;-122.308;2022-11-20T01:10:58;101989.38;;;9.99;84.57
69060;BME280;56135;37.534;-122.308;2022-11-20T01:13:24;101993.69;;;9.90;83.17
69060;BME280;56135;37.534;-122.308;2022-11-20T01:18:30;102005.78;;;9.67;87.65
69060;BME280;56135;37.534;-122.308;2022-11-20T01:20:59;102010.94;;;9.57;86.02
69060;BME280;56135;37.534;-122.308;2022-11-20T01:23:25;102009.91;;;9.47;85.64
69060;BME280;56135;37.534;-122.308;2022-11-20T01:25:51;102009.78;;;9.36;86.10
69060;BME280;56135;37.534;-122.308;2022-11-20T01:28:17;102017.59;;;9.28;86.96
69060;BME280;56135;37.534;-122.308;2022-11-20T01:30:43;102013.09;;;9.18;88.86
69060;BME280;56135;37.534;-122.308;2022-11-20T01:33:08;102019.09;;;9.08;89.18
69060;BME280;56135;37.534;-122.308;2022-11-20T01:35:34;102024.22;;;8.97;88.98
69060;BME280;56135;37.534;-122.308;2022-11-20T01:38:00;102026.72;;;8.86;89.66
69060;BME280;56135;37.534;-122.308;2022-11-20T01:40:26;102037.13;;;8.77;93.57
69060;BME280;56135;37.534;-122.308;2022-11-20T01:42:53;102038.72;;;8.68;93.65
69060;BME280;56135;37.534;-122.308;2022-11-20T01:46:03;102035.06;;;8.60;92.75
69060;BME280;56135;37.534;-122.308;2022-11-20T01:48:30;102040.19;;;8.49;93.09
69060;BME280;56135;37.534;-122.308;2022-11-20T01:50:57;102044.41;;;8.41;96.72
69060;BME280;56135;37.534;-122.308;2022-11-20T01:53:24;102042.50;;;8.34;96.11
69060;BME280;56135;37.534;-122.308;2022-11-20T01:55:52;102046.72;;;8.23;99.21
69060;BME280;56135;37.534;-122.308;2022-11-20T01:58:20;102048.34;;;8.16;99.51
69060;BME280;56135;37.534;-122.308;2022-11-20T02:00:47;102045.56;;;8.07;100.00
69060;BME280;56135;37.534;-122.308;2022-11-20T02:03:15;102055.94;;;7.99;100.00
69060;BME280;56135;37.534;-122.308;2022-11-20T02:08:26;102064.44;;;7.84;100.00
69060;BME280;56135;37.534;-122.308;2022-11-20T02:10:51;102061.66;;;7.78;100.00
69060;BME280;56135;37.534;-122.308;2022-11-20T02:13:17;102063.31;;;7.73;100.00
69060;BME280;56135;37.534;-122.308;2022-11-20T02:16:02;102064.84;;;7.61;100.00
69060;BME280;56135;37.534;-122.308;2022-11-20T02:18:28;102068.19;;;7.54;100.00
69060;BME280;56135;37.534;-122.308;2022-11-20T02:21:30;102068.97;;;7.48;100.00
69060;BME280;56135;37.534;-122.308;2022-11-20T02:26:52;102076.53;;;7.34;100.00
69060;BME280;56135;37.534;-122.308;2022-11-20T02:29:19;102075.53;;;7.29;100.00
69060;BME280;56135;37.534;-122.308;2022-11-20T02:31:48;102087.63;;;7.21;100.00
69060;BME280;56135;37.534;-122.308;2022-11-20T02:34:14;102080.50;;;7.15;100.00
69060;BME280;56135;37.534;-122.308;2022-11-20T02:36:40;102083.88;;;7.08;100.00
69060;BME280;56135;37.534;-122.308;2022-11-20T02:39:06;102087.22;;;7.03;100.00
69060;BME280;56135;37.534;-122.308;2022-11-20T02:41:33;102080.91;;;6.94;100.00
69060;BME280;56135;37.534;-122.308;2022-11-20T02:44:00;102091.31;;;6.90;100.00
69060;BME280;56135;37.534;-122.308;2022-11-20T02:46:26;102100.75;;;6.83;100.00
69060;BME280;56135;37.534;-122.308;2022-11-20T02:48:52;102095.44;;;6.80;100.00
69060;BME280;56135;37.534;-122.308;2022-11-20T02:51:18;102087.38;;;6.74;100.00
69060;BME280;56135;37.534;-122.308;2022-11-20T02:53:43;102096.84;;;6.67;100.00
69060;BME280;56135;37.534;-122.308;2022-11-20T02:56:09;102103.66;;;6.59;100.00
69060;BME280;56135;37.534;-122.308;2022-11-20T02:58:35;102100.03;;;6.54;100.00
69060;BME280;56135;37.534;-122.308;2022-11-20T03:01:01;102099.84;;;6.46;100.00
69060;BME280;56135;37.534;-122.308;2022-11-20T03:03:27;102108.47;;;6.42;100.00
69060;BME280;56135;37.534;-122.308;2022-11-20T03:05:52;102104.00;;;6.38;100.00
69060;BME280;56135;37.534;-122.308;2022-11-20T03:08:18;102107.38;;;6.33;100.00
69060;BME280;56135;37.534;-122.308;2022-11-20T03:10:44;102104.63;;;6.27;100.00
69060;BME280;56135;37.534;-122.308;2022-11-20T03:13:10;102110.69;;;6.25;100.00
69060;BME280;56135;37.534;-122.308;2022-11-20T03:15:36;102108.75;;;6.19;100.00
69060;BME280;56135;37.534;-122.308;2022-11-20T03:18:02;102116.56;;;6.16;100.00
69060;BME280;56135;37.534;-122.308;2022-11-20T03:20:28;102119.03;;;6.11;100.00
69060;BME280;56135;37.534;-122.308;2022-11-20T03:22:54;102117.25;;;6.09;100.00
69060;BME280;56135;37.534;-122.308;2022-11-20T03:25:20;102117.06;;;6.03;100.00
69060;BME280;56135;37.534;-122.308;2022-11-20T03:27:46;102115.19;;;5.98;100.00
69060;BME280;56135;37.534;-122.308;2022-11-20T03:30:12;102120.31;;;5.95;100.00
69060;BME280;56135;37.534;-122.308;2022-11-20T03:32:38;102119.34;;;5.92;100.00
69060;BME280;56135;37.534;-122.308;2022-11-20T03:35:03;102118.38;;;5.88;100.00
69060;BME280;56135;37.534;-122.308;2022-11-20T03:37:29;102127.03;;;5.85;100.00
69060;BME280;56135;37.534;-122.308;2022-11-20T03:39:55;102121.66;;;5.81;100.00
69060;BME280;56135;37.534;-122.308;2022-11-20T03:42:21;102129.47;;;5.79;100.00
69060;BME280;56135;37.534;-122.308;2022-11-20T03:45:05;102131.97;;;5.75;100.00
69060;BME280;56135;37.534;-122.308;2022-11-20T03:47:31;102140.59;;;5.71;100.00
69060;BME280;56135;37.534;-122.308;2022-11-20T03:49:56;102132.53;;;5.64;100.00
69060;BME280;56135;37.534;-122.308;2022-11-20T03:52:22;102142.97;;;5.63;100.00
69060;BME280;56135;37.534;-122.308;2022-11-20T03:54:48;102146.44;;;5.62;100.00
69060;BME280;56135;37.534;-122.308;2022-11-20T03:57:14;102147.22;;;5.59;100.00
69060;BME280;56135;37.534;-122.308;2022-11-20T03:59:39;102153.31;;;5.58;100.00
69060;BME280;56135;37.534;-122.308;2022-11-20T04:02:05;102147.22;;;5.59;100.00
69060;BME280;56135;37.534;-122.308;2022-11-20T04:04:31;102151.59;;;5.59;100.00
69060;BME280;56135;37.534;-122.308;2022-11-20T04:06:57;102150.69;;;5.58;100.00
69060;BME280;56135;37.534;-122.308;2022-11-20T04:09:22;102150.69;;;5.58;100.00
69060;BME280;56135;37.534;-122.308;2022-11-20T04:11:48;102147.16;;;5.56;100.00
69060;BME280;56135;37.534;-122.308;2022-11-20T04:14:14;102147.13;;;5.55;100.00
69060;BME280;56135;37.534;-122.308;2022-11-20T04:16:41;102154.06;;;5.54;100.00
69060;BME280;56135;37.534;-122.308;2022-11-20T04:19:10;102152.31;;;5.53;100.00
69060;BME280;56135;37.534;-122.308;2022-11-20T04:21:36;102151.44;;;5.54;100.00
69060;BME280;56135;37.534;-122.308;2022-11-20T04:24:02;102149.69;;;5.53;100.00
69060;BME280;56135;37.534;-122.308;2022-11-20T04:26:28;102152.19;;;5.50;100.00
69060;BME280;56135;37.534;-122.308;2022-11-20T04:28:54;102155.66;;;5.49;100.00
69060;BME280;56135;37.534;-122.308;2022-11-20T04:31:21;102156.44;;;5.46;100.00
69060;BME280;56135;37.534;-122.308;2022-11-20T04:33:47;102148.66;;;5.48;100.00
69060;BME280;56135;37.534;-122.308;2022-11-20T04:36:14;102154.75;;;5.47;100.00
69060;BME280;56135;37.534;-122.308;2022-11-20T04:38:40;102162.50;;;5.44;100.00
69060;BME280;56135;37.534;-122.308;2022-11-20T04:41:15;102158.94;;;5.42;100.00
69060;BME280;56135;37.534;-122.308;2022-11-20T04:43:41;102165.03;;;5.41;100.00
69060;BME280;56135;37.534;-122.308;2022-11-20T04:46:11;102161.41;;;5.37;100.00
69060;BME280;56135;37.534;-122.308;2022-11-20T04:48:37;102169.22;;;5.35;100.00
69060;BME280;56135;37.534;-122.308;2022-11-20T04:51:03;102165.69;;;5.33;100.00
69060;BME280;56135;37.534;-122.308;2022-11-20T04:53:29;102166.47;;;5.31;100.00
69060;BME280;56135;37.534;-122.308;2022-11-20T04:56:05;102172.50;;;5.28;100.00
69060;BME280;56135;37.534;-122.308;2022-11-20T04:58:31;102180.28;;;5.25;100.00
69060;BME280;56135;37.534;-122.308;2022-11-20T05:01:00;102189.84;;;5.25;100.00
69060;BME280;56135;37.534;-122.308;2022-11-20T05:03:27;102188.00;;;5.22;100.00
69060;BME280;56135;37.534;-122.308;2022-11-20T05:05:52;102190.59;;;5.21;100.00
69060;BME280;56135;37.534;-122.308;2022-11-20T05:08:18;102192.22;;;5.17;100.00
69060;BME280;56135;37.534;-122.308;2022-11-20T05:10:44;102197.41;;;5.15;100.00
69060;BME280;56135;37.534;-122.308;2022-11-20T05:13:10;102195.53;;;5.11;100.00
69060;BME280;56135;37.534;-122.308;2022-11-20T05:15:35;102199.78;;;5.08;100.00
69060;BME280;56135;37.534;-122.308;2022-11-20T05:18:01;102204.03;;;5.04;100.00
69060;BME280;56135;37.534;-122.308;2022-11-20T05:20:27;102203.91;;;5.01;100.00
69060;BME280;56135;37.534;-122.308;2022-11-20T05:22:56;102203.78;;;4.96;100.00
69060;BME280;56135;37.534;-122.308;2022-11-20T05:25:21;102205.47;;;4.96;100.00
69060;BME280;56135;37.534;-122.308;2022-11-20T05:27:47;102202.72;;;4.91;100.00
69060;BME280;56135;37.534;-122.308;2022-11-20T05:30:13;102210.41;;;4.87;100.00
69060;BME280;56135;37.534;-122.308;2022-11-20T05:32:39;102206.78;;;4.81;100.00
69060;BME280;56135;37.534;-122.308;2022-11-20T05:35:05;102205.63;;;4.75;100.00
69060;BME280;56135;37.534;-122.308;2022-11-20T05:37:31;102199.38;;;4.70;100.00
69060;BME280;56135;37.534;-122.308;2022-11-20T05:39:56;102208.84;;;4.66;100.00
69060;BME280;56135;37.534;-122.308;2022-11-20T05:42:22;102200.00;;;4.62;100.00
69060;BME280;56135;37.534;-122.308;2022-11-20T05:45:01;102200.72;;;4.58;100.00
69060;BME280;56135;37.534;-122.308;2022-11-20T05:47:27;102202.38;;;4.56;100.00
69060;BME280;56135;37.534;-122.308;2022-11-20T05:49:54;102209.34;;;4.56;100.00
69060;BME280;56135;37.534;-122.308;2022-11-20T05:52:19;102208.28;;;4.50;100.00
69060;BME280;56135;37.534;-122.308;2022-11-20T05:54:45;102211.69;;;4.48;100.00
69060;BME280;56135;37.534;-122.308;2022-11-20T05:57:11;102220.16;;;4.41;100.00
69060;BME280;56135;37.534;-122.308;2022-11-20T05:59:37;102213.94;;;4.37;100.00
69060;BME280;56135;37.534;-122.308;2022-11-20T06:02:02;102224.25;;;4.32;100.00
69060;BME280;56135;37.534;-122.308;2022-11-20T06:04:28;102215.31;;;4.27;100.00
69060;BME280;56135;37.534;-122.308;2022-11-20T06:06:54;102221.94;;;4.17;100.00
69060;BME280;56135;37.534;-122.308;2022-11-20T06:09:19;102225.41;;;4.16;100.00
69060;BME280;56135;37.534;-122.308;2022-11-20T06:11:45;102223.41;;;4.11;100.00
69060;BME280;56135;37.534;-122.308;2022-11-20T06:14:11;102235.50;;;4.07;100.00
69060;BME280;56135;37.534;-122.308;2022-11-20T06:16:37;102228.34;;;4.03;100.00
69060;BME280;56135;37.534;-122.308;2022-11-20T06:19:03;102238.66;;;3.98;100.00
69060;BME280;56135;37.534;-122.308;2022-11-20T06:21:29;102234.16;;;3.94;100.00
69060;BME280;56135;37.534;-122.308;2022-11-20T06:23:54;102233.03;;;3.88;100.00
69060;BME280;56135;37.534;-122.308;2022-11-20T06:26:26;102234.09;;;3.93;100.00
69060;BME280;56135;37.534;-122.308;2022-11-20T06:28:52;102234.03;;;3.91;100.00
69060;BME280;56135;37.534;-122.308;2022-11-20T06:31:19;102240.03;;;3.89;100.00
69060;BME280;56135;37.534;-122.308;2022-11-20T06:33:45;102247.16;;;3.93;100.00
69060;BME280;56135;37.534;-122.308;2022-11-20T06:36:11;102244.34;;;3.88;100.00
69060;BME280;56135;37.534;-122.308;2022-11-20T06:38:38;102246.03;;;3.86;100.00
69060;BME280;56135;37.534;-122.308;2022-11-20T06:41:05;102238.91;;;3.82;100.00
69060;BME280;56135;37.534;-122.308;2022-11-20T06:43:31;102240.44;;;3.77;100.00
69060;BME280;56135;37.534;-122.308;2022-11-20T06:45:57;102242.09;;;3.75;100.00
69060;BME280;56135;37.534;-122.308;2022-11-20T06:48:23;102248.03;;;3.71;100.00
69060;BME280;56135;37.534;-122.308;2022-11-20T06:50:49;102252.19;;;3.65;100.00
69060;BME280;56135;37.534;-122.308;2022-11-20T06:53:15;102250.22;;;3.60;100.00
69060;BME280;56135;37.534;-122.308;2022-11-20T06:55:42;102254.50;;;3.58;100.00
69060;BME280;56135;37.534;-122.308;2022-11-20T06:58:07;102244.75;;;3.54;100.00
69060;BME280;56135;37.534;-122.308;2022-11-20T07:00:33;102255.09;;;3.50;100.00
69060;BME280;56135;37.534;-122.308;2022-11-20T07:03:02;102253.94;;;3.44;100.00
69060;BME280;56135;37.534;-122.308;2022-11-20T07:05:28;102259.94;;;3.41;100.00
69060;BME280;56135;37.534;-122.308;2022-11-20T07:07:55;102263.19;;;3.36;100.00
69060;BME280;56135;37.534;-122.308;2022-11-20T07:10:21;102255.22;;;3.32;100.00
69060;BME280;56135;37.534;-122.308;2022-11-20T07:12:50;102266.38;;;3.28;100.00
69060;BME280;56135;37.534;-122.308;2022-11-20T07:15:16;102264.47;;;3.24;100.00
69060;BME280;56135;37.534;-122.308;2022-11-20T07:17:45;102264.25;;;3.20;100.00
69060;BME280;56135;37.534;-122.308;2022-11-20T07:20:11;102261.47;;;3.15;100.00
69060;BME280;56135;37.534;-122.308;2022-11-20T07:22:37;102263.00;;;3.10;100.00
69060;BME280;56135;37.534;-122.308;2022-11-20T07:25:03;102265.41;;;3.05;100.00
69060;BME280;56135;37.534;-122.308;2022-11-20T07:27:29;102269.59;;;3.02;100.00
69060;BME280;56135;37.534;-122.308;2022-11-20T07:29:55;102270.44;;;3.00;100.00
69060;BME280;56135;37.534;-122.308;2022-11-20T07:32:21;102270.31;;;2.97;100.00
69060;BME280;56135;37.534;-122.308;2022-11-20T07:34:50;102266.59;;;2.92;100.00
69060;BME280;56135;37.534;-122.308;2022-11-20T07:37:16;102261.31;;;2.91;100.00
69060;BME280;56135;37.534;-122.308;2022-11-20T07:39:44;102261.25;;;2.89;100.00
69060;BME280;56135;37.534;-122.308;2022-11-20T07:42:10;102260.28;;;2.87;100.00
69060;BME280;56135;37.534;-122.308;2022-11-20T07:44:37;102260.22;;;2.86;100.00
69060;BME280;56135;37.534;-122.308;2022-11-20T07:47:06;102262.69;;;2.82;100.00
69060;BME280;56135;37.534;-122.308;2022-11-20T07:49:31;102264.41;;;2.82;100.00
69060;BME280;56135;37.534;-122.308;2022-11-20T07:52:00;102261.75;;;2.80;100.00
69060;BME280;56135;37.534;-122.308;2022-11-20T07:54:26;102255.56;;;2.78;100.00
69060;BME280;56135;37.534;-122.308;2022-11-20T07:56:52;102255.50;;;2.77;100.00
69060;BME280;56135;37.534;-122.308;2022-11-20T07:59:17;102258.03;;;2.75;100.00
69060;BME280;56135;37.534;-122.308;2022-11-20T08:01:43;102257.91;;;2.72;100.00
69060;BME280;56135;37.534;-122.308;2022-11-20T08:04:09;102257.00;;;2.72;100.00
69060;BME280;56135;37.534;-122.308;2022-11-20T08:06:35;102255.25;;;2.71;100.00
69060;BME280;56135;37.534;-122.308;2022-11-20T08:09:01;102254.22;;;2.67;100.00
69060;BME280;56135;37.534;-122.308;2022-11-20T08:11:27;102255.84;;;2.65;100.00
69060;BME280;56135;37.534;-122.308;2022-11-20T08:14:11;102259.31;;;2.64;100.00
69060;BME280;56135;37.534;-122.308;2022-11-20T08:16:37;102254.84;;;2.61;100.00
69060;BME280;56135;37.534;-122.308;2022-11-20T08:19:03;102256.47;;;2.59;100.00
69060;BME280;56135;37.534;-122.308;2022-11-20T08:21:30;102257.28;;;2.58;100.00
69060;BME280;56135;37.534;-122.308;2022-11-20T08:23:56;102260.66;;;2.56;100.00
69060;BME280;56135;37.534;-122.308;2022-11-20T08:26:22;102260.53;;;2.53;100.00
69060;BME280;56135;37.534;-122.308;2022-11-20T08:28:48;102262.16;;;2.50;100.00
69060;BME280;56135;37.534;-122.308;2022-11-20T08:31:14;102262.91;;;2.48;100.00
69060;BME280;56135;37.534;-122.308;2022-11-20T08:33:40;102264.53;;;2.44;100.00
69060;BME280;56135;37.534;-122.308;2022-11-20T08:36:06;102263.59;;;2.44;100.00
69060;BME280;56135;37.534;-122.308;2022-11-20T08:38:31;102260.94;;;2.42;100.00
69060;BME280;56135;37.534;-122.308;2022-11-20T08:40:58;102259.06;;;2.40;100.00
69060;BME280;56135;37.534;-122.308;2022-11-20T08:43:42;102254.69;;;2.39;100.00
69060;BME280;56135;37.534;-122.308;2022-11-20T08:46:08;102252.84;;;2.36;100.00
69060;BME280;56135;37.534;-122.308;2022-11-20T08:48:33;102255.38;;;2.34;100.00
69060;BME280;56135;37.534;-122.308;2022-11-20T08:50:59;102251.81;;;2.32;100.00
69060;BME280;56135;37.534;-122.308;2022-11-20T08:53:25;102252.69;;;2.33;100.00
69060;BME280;56135;37.534;-122.308;2022-11-20T08:55:51;102257.91;;;2.33;100.00
69060;BME280;56135;37.534;-122.308;2022-11-20T08:58:17;102250.03;;;2.31;100.00
69060;BME280;56135;37.534;-122.308;2022-11-20T09:00:43;102256.13;;;2.32;100.00
69060;BME280;56135;37.534;-122.308;2022-11-20T09:03:08;102250.09;;;2.33;100.00
69060;BME280;56135;37.534;-122.308;2022-11-20T09:05:34;102247.47;;;2.33;100.00
69060;BME280;56135;37.534;-122.308;2022-11-20T09:08:00;102244.00;;;2.32;100.00
69060;BME280;56135;37.534;-122.308;2022-11-20T09:10:26;102247.47;;;2.33;100.00
69060;BME280;56135;37.534;-122.308;2022-11-20T09:12:52;102240.56;;;2.33;100.00
69060;BME280;56135;37.534;-122.308;2022-11-20T09:15:19;102243.19;;;2.33;100.00
69060;BME280;56135;37.534;-122.308;2022-11-20T09:17:51;102236.09;;;2.31;100.00
69060;BME280;56135;37.534;-122.308;2022-11-20T09:20:17;102244.69;;;2.28;100.00
69060;BME280;56135;37.534;-122.308;2022-11-20T09:22:43;102242.88;;;2.27;100.00
69060;BME280;56135;37.534;-122.308;2022-11-20T09:25:09;102248.09;;;2.27;100.00
69060;BME280;56135;37.534;-122.308;2022-11-20T09:27:35;102248.72;;;2.22;100.00
69060;BME280;56135;37.534;-122.308;2022-11-20T09:30:01;102250.47;;;2.23;100.00
69060;BME280;56135;37.534;-122.308;2022-11-20T09:32:26;102239.94;;;2.20;100.00
69060;BME280;56135;37.534;-122.308;2022-11-20T09:34:52;102243.28;;;2.17;100.00
69060;BME280;56135;37.534;-122.308;2022-11-20T09:37:18;102248.44;;;2.15;100.00
69060;BME280;56135;37.534;-122.308;2022-11-20T09:39:44;102245.75;;;2.14;100.00
69060;BME280;56135;37.534;-122.308;2022-11-20T09:55:38;102238.78;;;1.95;100.00
69060;BME280;56135;37.534;-122.308;2022-11-20T09:58:07;102243.88;;;1.92;100.00
69060;BME280;56135;37.534;-122.308;2022-11-20T10:00:37;102244.59;;;1.89;100.00
69060;BME280;56135;37.534;-122.308;2022-11-20T10:03:24;102240.06;;;1.85;100.00
69060;BME280;56135;37.534;-122.308;2022-11-20T10:05:52;102253.03;;;1.83;100.00
69060;BME280;56135;37.534;-122.308;2022-11-20T10:08:24;102246.78;;;1.80;100.00
69060;BME280;56135;37.534;-122.308;2022-11-20T10:16:09;102257.81;;;1.74;100.00
69060;BME280;56135;37.534;-122.308;2022-11-20T10:18:56;102259.50;;;1.74;100.00
69060;BME280;56135;37.534;-122.308;2022-11-20T10:21:30;102253.50;;;1.75;100.00
69060;BME280;56135;37.534;-122.308;2022-11-20T10:26:43;102257.00;;;1.75;100.00
69060;BME280;56135;37.534;-122.308;2022-11-20T10:29:14;102260.50;;;1.76;100.00
69060;BME280;56135;37.534;-122.308;2022-11-20T10:31:44;102256.91;;;1.74;100.00
69060;BME280;56135;37.534;-122.308;2022-11-20T10:34:17;102262.97;;;1.73;100.00
69060;BME280;56135;37.534;-122.308;2022-11-20T10:36:47;102260.44;;;1.74;100.00
69060;BME280;56135;37.534;-122.308;2022-11-20T10:41:48;102257.59;;;1.70;100.00
69060;BME280;56135;37.534;-122.308;2022-11-20T10:44:15;102259.38;;;1.71;100.00
69060;BME280;56135;37.534;-122.308;2022-11-20T10:47:00;102262.03;;;1.72;100.00
69060;BME280;56135;37.534;-122.308;2022-11-20T10:49:26;102262.13;;;1.74;100.00
69060;BME280;56135;37.534;-122.308;2022-11-20T10:57:20;102262.41;;;1.80;100.00
69060;BME280;56135;37.534;-122.308;2022-11-20T10:59:58;102257.28;;;1.81;100.00
69060;BME280;56135;37.534;-122.308;2022-11-20T11:05:33;102259.06;;;1.82;100.00
69060;BME280;56135;37.534;-122.308;2022-11-20T11:07:57;102255.41;;;1.79;100.00
69060;BME280;56135;37.534;-122.308;2022-11-20T11:12:55;102265.63;;;1.74;100.00
69060;BME280;56135;37.534;-122.308;2022-11-20T11:15:28;102272.47;;;1.72;100.00
69060;BME280;56135;37.534;-122.308;2022-11-20T11:17:54;102265.50;;;1.71;100.00
69060;BME280;56135;37.534;-122.308;2022-11-20T11:20:21;102273.38;;;1.73;100.00
69060;BME280;56135;37.534;-122.308;2022-11-20T11:22:51;102270.09;;;1.77;100.00
69060;BME280;56135;37.534;-122.308;2022-11-20T11:25:36;102266.75;;;1.79;100.00
69060;BME280;56135;37.534;-122.308;2022-11-20T11:28:19;102265.84;;;1.79;100.00
69060;BME280;56135;37.534;-122.308;2022-11-20T11:30:45;102263.97;;;1.76;100.00
69060;BME280;56135;37.534;-122.308;2022-11-20T11:33:18;102264.97;;;1.78;100.00
69060;BME280;56135;37.534;-122.308;2022-11-20T11:35:46;102265.03;;;1.80;100.00
69060;BME280;56135;37.534;-122.308;2022-11-20T11:38:22;102263.22;;;1.79;100.00
69060;BME280;56135;37.534;-122.308;2022-11-20T11:40:49;102270.25;;;1.80;100.00
69060;BME280;56135;37.534;-122.308;2022-11-20T11:43:25;102279.03;;;1.82;100.00
69060;BME280;56135;37.534;-122.308;2022-11-20T11:51:23;102275.50;;;1.81;100.00
69060;BME280;56135;37.534;-122.308;2022-11-20T11:53:50;102270.47;;;1.85;100.00
69060;BME280;56135;37.534;-122.308;2022-11-20T11:56:16;102273.97;;;1.85;100.00
69060;BME280;56135;37.534;-122.308;2022-11-20T12:04:12;102279.03;;;1.82;100.00
69060;BME280;56135;37.534;-122.308;2022-11-20T12:06:40;102281.72;;;1.83;100.00
69060;BME280;56135;37.534;-122.308;2022-11-20T12:09:09;102285.19;;;1.84;100.00
69060;BME280;56135;37.534;-122.308;2022-11-20T12:11:54;102275.59;;;1.83;100.00
69060;BME280;56135;37.534;-122.308;2022-11-20T12:16:51;102278.28;;;1.85;100.00
69060;BME280;56135;37.534;-122.308;2022-11-20T12:19:18;102279.03;;;1.82;100.00
69060;BME280;56135;37.534;-122.308;2022-11-20T12:22:02;102282.44;;;1.81;100.00
69060;BME280;56135;37.534;-122.308;2022-11-20T12:24:35;102283.25;;;1.80;100.00
69060;BME280;56135;37.534;-122.308;2022-11-20T12:39:48;102294.16;;;1.71;100.00
69060;BME280;56135;37.534;-122.308;2022-11-20T12:48:44;102302.78;;;1.70;100.00
69060;BME280;56135;37.534;-122.308;2022-11-20T12:53:11;102314.09;;;1.71;100.00
69060;BME280;56135;37.534;-122.308;2022-11-20T12:55:53;102302.78;;;1.70;100.00
69060;BME280;56135;37.534;-122.308;2022-11-20T13:01:00;102304.59;;;1.71;100.00
69060;BME280;56135;37.534;-122.308;2022-11-20T13:03:41;102311.47;;;1.71;100.00
69060;BME280;56135;37.534;-122.308;2022-11-20T13:06:13;102311.47;;;1.71;100.00
69060;BME280;56135;37.534;-122.308;2022-11-20T13:08:40;102311.47;;;1.71;100.00
69060;BME280;56135;37.534;-122.308;2022-11-20T13:11:08;102307.19;;;1.71;100.00
69060;BME280;56135;37.534;-122.308;2022-11-20T13:18:26;102311.47;;;1.71;100.00
69060;BME280;56135;37.534;-122.308;2022-11-20T13:20:53;102316.69;;;1.71;100.00
69060;BME280;56135;37.534;-122.308;2022-11-20T13:23:26;102310.75;;;1.73;100.00
69060;BME280;56135;37.534;-122.308;2022-11-20T13:26:15;102313.28;;;1.72;100.00
69060;BME280;56135;37.534;-122.308;2022-11-20T13:28:38;102318.50;;;1.72;100.00
69060;BME280;56135;37.534;-122.308;2022-11-20T13:31:09;102314.16;;;1.72;100.00
69060;BME280;56135;37.534;-122.308;2022-11-20T13:33:49;102315.81;;;1.70;100.00
69060;BME280;56135;37.534;-122.308;2022-11-20T13:36:23;102328.03;;;1.71;100.00
69060;BME280;56135;37.534;-122.308;2022-11-20T13:38:50;102335.06;;;1.74;100.00
69060;BME280;56135;37.534;-122.308;2022-11-20T13:41:26;102329.78;;;1.72;100.00
69060;BME280;56135;37.534;-122.308;2022-11-20T13:46:42;102333.25;;;1.71;100.00
69060;BME280;56135;37.534;-122.308;2022-11-20T13:49:10;102338.34;;;1.70;100.00
69060;BME280;56135;37.534;-122.308;2022-11-20T13:51:51;102338.34;;;1.70;100.00